sensor_id;sensor_type;location;lat;lon;timestamp;temperature;humidity
8248;DHT22;4164;49.844;8.830;2022-09-27T00:00:19;10.70;99.90
8248;DHT22;4164;49.844;8.830;2022-09-27T00:02:45;10.70;99.90
8248;DHT22;4164;49.844;8.830;2022-09-27T00:05:11;10.70;99.90
8248;DHT22;4164;49.844;8.830;2022-09-27T00:07:36;10.80;99.90
8248;DHT22;4164;49.844;8.830;2022-09-27T00:10:02;10.70;99.90
8248;DHT22;4164;49.844;8.830;2022-09-27T00:12:28;10.70;99.90
8248;DHT22;4164;49.844;8.830;2022-09-27T00:14:53;10.80;99.90
8248;DHT22;4164;49.844;8.830;2022-09-27T00:17:19;10.80;99.90
8248;DHT22;4164;49.844;8.830;2022-09-27T00:19:44;10.70;99.90
8248;DHT22;4164;49.844;8.830;2022-09-27T00:22:10;10.80;99.90
8248;DHT22;4164;49.844;8.830;2022-09-27T00:24:35;10.80;99.90
8248;DHT22;4164;49.844;8.830;2022-09-27T00:27:01;10.80;99.90
8248;DHT22;4164;49.844;8.830;2022-09-27T00:29:27;10.80;99.90
8248;DHT22;4164;49.844;8.830;2022-09-27T00:31:52;10.80;99.90
8248;DHT22;4164;49.844;8.830;2022-09-27T00:34:23;10.80;99.90
8248;DHT22;4164;49.844;8.830;2022-09-27T00:36:50;10.80;99.90
8248;DHT22;4164;49.844;8.830;2022-09-27T00:39:16;10.80;99.90
8248;DHT22;4164;49.844;8.830;2022-09-27T00:41:41;10.80;99.90
8248;DHT22;4164;49.844;8.830;2022-09-27T00:47:08;10.80;99.90
8248;DHT22;4164;49.844;8.830;2022-09-27T00:50:05;10.70;99.90
8248;DHT22;4164;49.844;8.830;2022-09-27T00:52:38;10.80;99.90
8248;DHT22;4164;49.844;8.830;2022-09-27T00:55:14;10.90;99.90
8248;DHT22;4164;49.844;8.830;2022-09-27T00:57:43;11.40;99.90
8248;DHT22;4164;49.844;8.830;2022-09-27T01:00:11;10.90;99.90
8248;DHT22;4164;49.844;8.830;2022-09-27T01:02:40;11.00;99.90
8248;DHT22;4164;49.844;8.830;2022-09-27T01:05:07;11.00;99.90
8248;DHT22;4164;49.844;8.830;2022-09-27T01:07:34;11.00;99.90
8248;DHT22;4164;49.844;8.830;2022-09-27T01:09:59;10.90;99.90
8248;DHT22;4164;49.844;8.830;2022-09-27T01:18:33;10.90;99.90
8248;DHT22;4164;49.844;8.830;2022-09-27T01:26:30;10.80;99.90
8248;DHT22;4164;49.844;8.830;2022-09-27T01:29:21;10.90;99.90
8248;DHT22;4164;49.844;8.830;2022-09-27T01:32:00;10.90;99.90
8248;DHT22;4164;49.844;8.830;2022-09-27T01:40:08;10.90;99.90
8248;DHT22;4164;49.844;8.830;2022-09-27T01:45:51;10.80;99.90
8248;DHT22;4164;49.844;8.830;2022-09-27T01:48:23;10.80;99.90
8248;DHT22;4164;49.844;8.830;2022-09-27T01:51:00;10.80;99.90
8248;DHT22;4164;49.844;8.830;2022-09-27T01:56:06;10.70;99.90
8248;DHT22;4164;49.844;8.830;2022-09-27T01:59:29;10.80;99.90
8248;DHT22;4164;49.844;8.830;2022-09-27T02:01:31;10.80;99.90
8248;DHT22;4164;49.844;8.830;2022-09-27T02:04:00;10.80;99.90
8248;DHT22;4164;49.844;8.830;2022-09-27T02:06:40;10.80;99.90
8248;DHT22;4164;49.844;8.830;2022-09-27T02:09:13;10.70;99.90
8248;DHT22;4164;49.844;8.830;2022-09-27T02:11:44;10.70;99.90
8248;DHT22;4164;49.844;8.830;2022-09-27T02:14:18;10.70;99.90
8248;DHT22;4164;49.844;8.830;2022-09-27T02:22:53;10.70;99.90
8248;DHT22;4164;49.844;8.830;2022-09-27T02:25:26;10.60;99.90
8248;DHT22;4164;49.844;8.830;2022-09-27T02:28:59;10.60;99.90
8248;DHT22;4164;49.844;8.830;2022-09-27T02:31:05;10.60;99.90
8248;DHT22;4164;49.844;8.830;2022-09-27T02:33:49;10.60;99.90
8248;DHT22;4164;49.844;8.830;2022-09-27T02:36:17;10.60;99.90
8248;DHT22;4164;49.844;8.830;2022-09-27T02:38:43;10.70;99.90
8248;DHT22;4164;49.844;8.830;2022-09-27T02:41:13;10.70;99.90
8248;DHT22;4164;49.844;8.830;2022-09-27T02:43:40;10.70;99.90
8248;DHT22;4164;49.844;8.830;2022-09-27T02:49:03;10.70;99.90
8248;DHT22;4164;49.844;8.830;2022-09-27T02:52:05;10.70;99.90
8248;DHT22;4164;49.844;8.830;2022-09-27T02:54:52;10.70;99.90
8248;DHT22;4164;49.844;8.830;2022-09-27T02:57:47;10.80;99.90
8248;DHT22;4164;49.844;8.830;2022-09-27T03:00:19;10.70;99.90
8248;DHT22;4164;49.844;8.830;2022-09-27T03:05:27;10.70;99.90
8248;DHT22;4164;49.844;8.830;2022-09-27T03:07:54;10.70;99.90
8248;DHT22;4164;49.844;8.830;2022-09-27T03:10:25;10.70;99.90
8248;DHT22;4164;49.844;8.830;2022-09-27T03:12:51;10.70;99.90
8248;DHT22;4164;49.844;8.830;2022-09-27T03:15:17;10.70;99.90
8248;DHT22;4164;49.844;8.830;2022-09-27T03:17:43;10.70;99.90
8248;DHT22;4164;49.844;8.830;2022-09-27T03:20:08;10.60;99.90
8248;DHT22;4164;49.844;8.830;2022-09-27T03:22:34;10.60;99.90
8248;DHT22;4164;49.844;8.830;2022-09-27T03:25:00;10.50;99.90
8248;DHT22;4164;49.844;8.830;2022-09-27T03:27:26;10.60;99.90
8248;DHT22;4164;49.844;8.830;2022-09-27T03:29:51;10.50;99.90
8248;DHT22;4164;49.844;8.830;2022-09-27T03:32:17;10.50;99.90
8248;DHT22;4164;49.844;8.830;2022-09-27T03:34:43;10.50;99.90
8248;DHT22;4164;49.844;8.830;2022-09-27T03:37:10;10.50;99.90
8248;DHT22;4164;49.844;8.830;2022-09-27T03:39:35;10.50;99.90
8248;DHT22;4164;49.844;8.830;2022-09-27T03:42:01;10.50;99.90
8248;DHT22;4164;49.844;8.830;2022-09-27T03:44:26;10.50;99.90
8248;DHT22;4164;49.844;8.830;2022-09-27T03:46:52;10.50;99.90
8248;DHT22;4164;49.844;8.830;2022-09-27T03:49:17;10.40;99.90
8248;DHT22;4164;49.844;8.830;2022-09-27T03:51:44;10.40;99.90
8248;DHT22;4164;49.844;8.830;2022-09-27T03:54:09;10.30;99.90
8248;DHT22;4164;49.844;8.830;2022-09-27T03:56:35;10.30;99.90
8248;DHT22;4164;49.844;8.830;2022-09-27T03:59:00;10.30;99.90
8248;DHT22;4164;49.844;8.830;2022-09-27T04:01:26;10.30;99.90
8248;DHT22;4164;49.844;8.830;2022-09-27T04:03:53;10.30;99.90
8248;DHT22;4164;49.844;8.830;2022-09-27T04:06:18;10.30;99.90
8248;DHT22;4164;49.844;8.830;2022-09-27T04:08:44;10.30;99.90
8248;DHT22;4164;49.844;8.830;2022-09-27T04:11:10;10.30;99.90
8248;DHT22;4164;49.844;8.830;2022-09-27T04:13:36;10.40;99.90
8248;DHT22;4164;49.844;8.830;2022-09-27T04:16:02;10.30;99.90
8248;DHT22;4164;49.844;8.830;2022-09-27T04:18:28;10.20;99.90
8248;DHT22;4164;49.844;8.830;2022-09-27T04:20:53;10.20;99.90
8248;DHT22;4164;49.844;8.830;2022-09-27T04:23:19;10.20;99.90
8248;DHT22;4164;49.844;8.830;2022-09-27T04:25:45;10.10;99.90
8248;DHT22;4164;49.844;8.830;2022-09-27T04:28:13;10.10;99.90
8248;DHT22;4164;49.844;8.830;2022-09-27T04:30:39;10.10;99.90
8248;DHT22;4164;49.844;8.830;2022-09-27T04:33:05;10.00;99.90
8248;DHT22;4164;49.844;8.830;2022-09-27T04:35:31;9.90;99.90
8248;DHT22;4164;49.844;8.830;2022-09-27T04:38:15;9.90;99.90
8248;DHT22;4164;49.844;8.830;2022-09-27T04:40:40;9.80;99.90
8248;DHT22;4164;49.844;8.830;2022-09-27T04:43:06;9.80;99.90
8248;DHT22;4164;49.844;8.830;2022-09-27T04:45:32;9.80;99.90
8248;DHT22;4164;49.844;8.830;2022-09-27T04:47:57;9.70;99.90
8248;DHT22;4164;49.844;8.830;2022-09-27T04:50:23;9.70;99.90
8248;DHT22;4164;49.844;8.830;2022-09-27T04:52:50;9.70;99.90
8248;DHT22;4164;49.844;8.830;2022-09-27T04:55:17;9.70;99.90
8248;DHT22;4164;49.844;8.830;2022-09-27T04:57:43;9.80;99.90
8248;DHT22;4164;49.844;8.830;2022-09-27T05:00:09;9.70;99.90
8248;DHT22;4164;49.844;8.830;2022-09-27T05:02:35;9.70;99.90
8248;DHT22;4164;49.844;8.830;2022-09-27T05:05:01;9.80;99.90
8248;DHT22;4164;49.844;8.830;2022-09-27T05:07:29;9.80;99.90
8248;DHT22;4164;49.844;8.830;2022-09-27T05:09:57;9.80;99.90
8248;DHT22;4164;49.844;8.830;2022-09-27T05:12:23;9.90;99.90
8248;DHT22;4164;49.844;8.830;2022-09-27T05:14:51;9.90;99.90
8248;DHT22;4164;49.844;8.830;2022-09-27T05:17:17;9.90;99.90
8248;DHT22;4164;49.844;8.830;2022-09-27T05:19:43;9.90;99.90
8248;DHT22;4164;49.844;8.830;2022-09-27T05:22:09;9.90;99.90
8248;DHT22;4164;49.844;8.830;2022-09-27T05:24:34;9.90;99.90
8248;DHT22;4164;49.844;8.830;2022-09-27T05:27:02;9.80;99.90
8248;DHT22;4164;49.844;8.830;2022-09-27T05:29:29;9.80;99.90
8248;DHT22;4164;49.844;8.830;2022-09-27T05:31:54;9.80;99.90
8248;DHT22;4164;49.844;8.830;2022-09-27T05:34:20;9.90;99.90
8248;DHT22;4164;49.844;8.830;2022-09-27T05:36:46;9.90;99.90
8248;DHT22;4164;49.844;8.830;2022-09-27T05:39:12;9.90;99.90
8248;DHT22;4164;49.844;8.830;2022-09-27T05:41:37;9.80;99.90
8248;DHT22;4164;49.844;8.830;2022-09-27T05:44:05;9.70;99.90
8248;DHT22;4164;49.844;8.830;2022-09-27T05:46:30;9.80;99.90
8248;DHT22;4164;49.844;8.830;2022-09-27T05:48:56;9.80;99.90
8248;DHT22;4164;49.844;8.830;2022-09-27T05:51:21;9.90;99.90
8248;DHT22;4164;49.844;8.830;2022-09-27T05:53:47;10.00;99.90
8248;DHT22;4164;49.844;8.830;2022-09-27T05:56:13;9.90;99.90
8248;DHT22;4164;49.844;8.830;2022-09-27T05:58:38;9.90;99.90
8248;DHT22;4164;49.844;8.830;2022-09-27T06:01:08;10.00;99.90
8248;DHT22;4164;49.844;8.830;2022-09-27T06:03:34;9.90;99.90
8248;DHT22;4164;49.844;8.830;2022-09-27T06:06:03;10.00;99.90
8248;DHT22;4164;49.844;8.830;2022-09-27T06:08:33;10.00;99.90
8248;DHT22;4164;49.844;8.830;2022-09-27T06:11:01;10.00;99.90
8248;DHT22;4164;49.844;8.830;2022-09-27T06:13:30;10.00;99.90
8248;DHT22;4164;49.844;8.830;2022-09-27T06:15:57;10.00;99.90
8248;DHT22;4164;49.844;8.830;2022-09-27T06:18:23;10.10;99.90
8248;DHT22;4164;49.844;8.830;2022-09-27T06:20:49;10.10;99.90
8248;DHT22;4164;49.844;8.830;2022-09-27T06:23:20;10.10;99.90
8248;DHT22;4164;49.844;8.830;2022-09-27T06:25:47;10.20;99.90
8248;DHT22;4164;49.844;8.830;2022-09-27T06:28:14;10.10;99.90
8248;DHT22;4164;49.844;8.830;2022-09-27T06:30:41;10.20;99.90
8248;DHT22;4164;49.844;8.830;2022-09-27T06:33:13;10.20;99.90
8248;DHT22;4164;49.844;8.830;2022-09-27T06:35:40;10.20;99.90
8248;DHT22;4164;49.844;8.830;2022-09-27T06:38:09;10.20;99.90
8248;DHT22;4164;49.844;8.830;2022-09-27T06:40:35;10.20;99.90
8248;DHT22;4164;49.844;8.830;2022-09-27T06:43:06;10.20;99.90
8248;DHT22;4164;49.844;8.830;2022-09-27T06:45:33;10.20;99.90
8248;DHT22;4164;49.844;8.830;2022-09-27T06:48:03;10.30;99.90
8248;DHT22;4164;49.844;8.830;2022-09-27T06:50:30;10.30;99.90
8248;DHT22;4164;49.844;8.830;2022-09-27T06:52:57;10.30;99.90
8248;DHT22;4164;49.844;8.830;2022-09-27T06:55:23;10.30;99.90
8248;DHT22;4164;49.844;8.830;2022-09-27T06:57:53;10.40;99.90
8248;DHT22;4164;49.844;8.830;2022-09-27T07:00:37;10.40;99.90
8248;DHT22;4164;49.844;8.830;2022-09-27T07:03:03;10.30;99.90
8248;DHT22;4164;49.844;8.830;2022-09-27T07:05:29;10.30;99.90
8248;DHT22;4164;49.844;8.830;2022-09-27T07:07:55;10.30;99.90
8248;DHT22;4164;49.844;8.830;2022-09-27T07:10:24;10.30;99.90
8248;DHT22;4164;49.844;8.830;2022-09-27T07:12:50;10.30;99.90
8248;DHT22;4164;49.844;8.830;2022-09-27T07:15:16;10.40;99.90
8248;DHT22;4164;49.844;8.830;2022-09-27T07:17:42;10.30;99.90
8248;DHT22;4164;49.844;8.830;2022-09-27T07:20:08;10.40;99.90
8248;DHT22;4164;49.844;8.830;2022-09-27T07:22:41;10.50;99.90
8248;DHT22;4164;49.844;8.830;2022-09-27T07:25:10;10.60;99.90
8248;DHT22;4164;49.844;8.830;2022-09-27T07:27:36;10.70;99.90
8248;DHT22;4164;49.844;8.830;2022-09-27T07:30:01;10.70;99.90
8248;DHT22;4164;49.844;8.830;2022-09-27T07:32:29;10.70;99.90
8248;DHT22;4164;49.844;8.830;2022-09-27T07:34:54;10.60;99.90
8248;DHT22;4164;49.844;8.830;2022-09-27T07:37:20;10.60;99.90
8248;DHT22;4164;49.844;8.830;2022-09-27T07:39:45;10.50;99.90
8248;DHT22;4164;49.844;8.830;2022-09-27T07:42:11;10.30;99.90
8248;DHT22;4164;49.844;8.830;2022-09-27T07:44:36;10.30;99.90
8248;DHT22;4164;49.844;8.830;2022-09-27T07:47:06;10.30;99.90
8248;DHT22;4164;49.844;8.830;2022-09-27T07:49:31;10.20;99.90
8248;DHT22;4164;49.844;8.830;2022-09-27T07:51:56;10.20;99.90
8248;DHT22;4164;49.844;8.830;2022-09-27T07:54:22;10.30;99.90
8248;DHT22;4164;49.844;8.830;2022-09-27T07:56:48;10.30;99.90
8248;DHT22;4164;49.844;8.830;2022-09-27T07:59:14;10.30;99.90
8248;DHT22;4164;49.844;8.830;2022-09-27T08:01:39;10.50;99.90
8248;DHT22;4164;49.844;8.830;2022-09-27T08:04:05;10.60;99.90
8248;DHT22;4164;49.844;8.830;2022-09-27T08:06:30;10.50;99.90
8248;DHT22;4164;49.844;8.830;2022-09-27T08:08:56;10.60;99.90
8248;DHT22;4164;49.844;8.830;2022-09-27T08:11:24;10.60;99.90
8248;DHT22;4164;49.844;8.830;2022-09-27T08:13:49;10.60;99.90
8248;DHT22;4164;49.844;8.830;2022-09-27T08:16:17;10.60;99.90
8248;DHT22;4164;49.844;8.830;2022-09-27T08:18:42;10.50;99.90
8248;DHT22;4164;49.844;8.830;2022-09-27T08:21:08;10.70;99.90
8248;DHT22;4164;49.844;8.830;2022-09-27T08:23:34;10.80;99.90
8248;DHT22;4164;49.844;8.830;2022-09-27T08:26:01;10.90;99.90
8248;DHT22;4164;49.844;8.830;2022-09-27T08:28:26;11.10;99.90
8248;DHT22;4164;49.844;8.830;2022-09-27T08:30:52;11.10;99.90
8248;DHT22;4164;49.844;8.830;2022-09-27T08:33:18;11.60;99.90
8248;DHT22;4164;49.844;8.830;2022-09-27T08:35:43;11.90;99.90
8248;DHT22;4164;49.844;8.830;2022-09-27T08:38:10;11.60;99.90
8248;DHT22;4164;49.844;8.830;2022-09-27T08:40:56;11.60;99.90
8248;DHT22;4164;49.844;8.830;2022-09-27T08:43:48;11.70;99.90
8248;DHT22;4164;49.844;8.830;2022-09-27T08:48:56;11.90;99.90
8248;DHT22;4164;49.844;8.830;2022-09-27T08:51:27;11.90;99.90
8248;DHT22;4164;49.844;8.830;2022-09-27T08:54:10;11.90;99.90
8248;DHT22;4164;49.844;8.830;2022-09-27T08:56:38;11.90;99.90
8248;DHT22;4164;49.844;8.830;2022-09-27T08:59:12;12.20;99.90
8248;DHT22;4164;49.844;8.830;2022-09-27T09:01:39;12.20;99.90
8248;DHT22;4164;49.844;8.830;2022-09-27T09:04:06;12.20;99.90
8248;DHT22;4164;49.844;8.830;2022-09-27T09:06:42;11.90;99.90
8248;DHT22;4164;49.844;8.830;2022-09-27T09:20:31;12.40;99.90
8248;DHT22;4164;49.844;8.830;2022-09-27T09:28:56;13.30;99.90
8248;DHT22;4164;49.844;8.830;2022-09-27T09:34:19;14.00;99.90
8248;DHT22;4164;49.844;8.830;2022-09-27T09:39:19;13.60;99.90
8248;DHT22;4164;49.844;8.830;2022-09-27T09:42:14;13.30;99.90
8248;DHT22;4164;49.844;8.830;2022-09-27T09:47:32;13.50;99.90
8248;DHT22;4164;49.844;8.830;2022-09-27T09:50:13;13.10;99.90
8248;DHT22;4164;49.844;8.830;2022-09-27T09:52:44;13.40;99.90
8248;DHT22;4164;49.844;8.830;2022-09-27T09:55:22;13.90;99.90
8248;DHT22;4164;49.844;8.830;2022-09-27T09:59:03;14.20;99.90
8248;DHT22;4164;49.844;8.830;2022-09-27T10:01:04;14.30;99.90
8248;DHT22;4164;49.844;8.830;2022-09-27T10:03:33;13.90;99.90
8248;DHT22;4164;49.844;8.830;2022-09-27T10:05:59;13.60;99.90
8248;DHT22;4164;49.844;8.830;2022-09-27T10:08:25;13.50;99.90
8248;DHT22;4164;49.844;8.830;2022-09-27T10:10:50;13.30;99.90
8248;DHT22;4164;49.844;8.830;2022-09-27T10:13:18;13.40;99.90
8248;DHT22;4164;49.844;8.830;2022-09-27T10:18:27;13.40;99.90
8248;DHT22;4164;49.844;8.830;2022-09-27T10:21:00;13.20;99.90
8248;DHT22;4164;49.844;8.830;2022-09-27T10:23:27;12.70;99.90
8248;DHT22;4164;49.844;8.830;2022-09-27T10:25:56;12.50;99.90
8248;DHT22;4164;49.844;8.830;2022-09-27T10:28:34;12.20;99.90
8248;DHT22;4164;49.844;8.830;2022-09-27T10:31:06;11.90;99.90
8248;DHT22;4164;49.844;8.830;2022-09-27T10:33:34;11.40;99.90
8248;DHT22;4164;49.844;8.830;2022-09-27T10:36:01;11.30;99.90
8248;DHT22;4164;49.844;8.830;2022-09-27T10:38:35;11.00;99.90
8248;DHT22;4164;49.844;8.830;2022-09-27T10:41:25;11.10;99.90
8248;DHT22;4164;49.844;8.830;2022-09-27T10:43:56;11.30;99.90
8248;DHT22;4164;49.844;8.830;2022-09-27T10:46:30;11.30;99.90
8248;DHT22;4164;49.844;8.830;2022-09-27T10:49:08;11.30;99.90
8248;DHT22;4164;49.844;8.830;2022-09-27T10:51:34;11.50;99.90
8248;DHT22;4164;49.844;8.830;2022-09-27T10:54:00;11.80;99.90
8248;DHT22;4164;49.844;8.830;2022-09-27T10:56:33;12.40;99.90
8248;DHT22;4164;49.844;8.830;2022-09-27T10:58:59;13.40;99.90
8248;DHT22;4164;49.844;8.830;2022-09-27T11:01:41;13.80;99.90
8248;DHT22;4164;49.844;8.830;2022-09-27T11:04:23;13.90;99.90
8248;DHT22;4164;49.844;8.830;2022-09-27T11:06:49;13.80;99.90
8248;DHT22;4164;49.844;8.830;2022-09-27T11:09:23;13.30;99.90
8248;DHT22;4164;49.844;8.830;2022-09-27T11:12:08;13.20;99.90
8248;DHT22;4164;49.844;8.830;2022-09-27T11:14:34;13.10;99.90
8248;DHT22;4164;49.844;8.830;2022-09-27T11:25:23;12.90;99.90
8248;DHT22;4164;49.844;8.830;2022-09-27T11:28:30;12.50;99.90
8248;DHT22;4164;49.844;8.830;2022-09-27T11:31:25;12.60;99.90
8248;DHT22;4164;49.844;8.830;2022-09-27T11:47:53;13.10;99.90
8248;DHT22;4164;49.844;8.830;2022-09-27T11:56:26;12.90;99.90
8248;DHT22;4164;49.844;8.830;2022-09-27T12:07:10;13.60;99.90
8248;DHT22;4164;49.844;8.830;2022-09-27T12:09:49;13.80;99.90
8248;DHT22;4164;49.844;8.830;2022-09-27T12:12:19;14.30;99.90
8248;DHT22;4164;49.844;8.830;2022-09-27T12:14:56;14.60;99.90
8248;DHT22;4164;49.844;8.830;2022-09-27T12:17:28;14.70;99.90
8248;DHT22;4164;49.844;8.830;2022-09-27T12:19:57;14.60;99.90
8248;DHT22;4164;49.844;8.830;2022-09-27T12:22:37;14.10;99.90
8248;DHT22;4164;49.844;8.830;2022-09-27T12:25:04;13.70;99.90
8248;DHT22;4164;49.844;8.830;2022-09-27T12:27:54;13.70;99.90
8248;DHT22;4164;49.844;8.830;2022-09-27T12:30:21;14.10;99.90
8248;DHT22;4164;49.844;8.830;2022-09-27T12:35:49;13.90;99.90
8248;DHT22;4164;49.844;8.830;2022-09-27T12:39:05;14.00;99.90
8248;DHT22;4164;49.844;8.830;2022-09-27T12:41:38;13.90;99.90
8248;DHT22;4164;49.844;8.830;2022-09-27T12:44:08;13.80;99.90
8248;DHT22;4164;49.844;8.830;2022-09-27T12:46:44;13.90;99.90
8248;DHT22;4164;49.844;8.830;2022-09-27T12:52:18;13.90;99.90
8248;DHT22;4164;49.844;8.830;2022-09-27T13:00:21;13.60;99.90
8248;DHT22;4164;49.844;8.830;2022-09-27T13:02:57;13.50;99.90
8248;DHT22;4164;49.844;8.830;2022-09-27T13:14:00;13.10;99.90
8248;DHT22;4164;49.844;8.830;2022-09-27T13:16:26;13.10;99.90
8248;DHT22;4164;49.844;8.830;2022-09-27T13:18:59;13.10;99.90
8248;DHT22;4164;49.844;8.830;2022-09-27T13:21:53;13.20;99.90
8248;DHT22;4164;49.844;8.830;2022-09-27T13:24:39;13.40;99.90
8248;DHT22;4164;49.844;8.830;2022-09-27T13:32:33;13.50;99.90
8248;DHT22;4164;49.844;8.830;2022-09-27T13:35:11;13.40;99.90
8248;DHT22;4164;49.844;8.830;2022-09-27T13:40:29;12.90;99.90
8248;DHT22;4164;49.844;8.830;2022-09-27T13:48:18;11.10;99.90
8248;DHT22;4164;49.844;8.830;2022-09-27T13:50:58;10.90;99.90
8248;DHT22;4164;49.844;8.830;2022-09-27T13:53:38;10.70;99.90
8248;DHT22;4164;49.844;8.830;2022-09-27T13:56:05;10.60;99.90
8248;DHT22;4164;49.844;8.830;2022-09-27T13:58:58;10.80;99.90
8248;DHT22;4164;49.844;8.830;2022-09-27T14:01:36;10.90;99.90
8248;DHT22;4164;49.844;8.830;2022-09-27T14:04:17;10.90;99.90
8248;DHT22;4164;49.844;8.830;2022-09-27T14:06:47;11.10;99.90
8248;DHT22;4164;49.844;8.830;2022-09-27T14:09:18;11.20;99.90
8248;DHT22;4164;49.844;8.830;2022-09-27T14:11:49;11.20;99.90
8248;DHT22;4164;49.844;8.830;2022-09-27T14:14:19;11.30;99.90
8248;DHT22;4164;49.844;8.830;2022-09-27T14:16:47;11.40;99.90
8248;DHT22;4164;49.844;8.830;2022-09-27T14:19:19;11.60;99.90
8248;DHT22;4164;49.844;8.830;2022-09-27T14:21:45;11.70;99.90
8248;DHT22;4164;49.844;8.830;2022-09-27T14:24:50;11.70;99.90
8248;DHT22;4164;49.844;8.830;2022-09-27T14:27:21;11.90;99.90
8248;DHT22;4164;49.844;8.830;2022-09-27T14:29:56;11.80;99.90
8248;DHT22;4164;49.844;8.830;2022-09-27T14:32:26;11.90;99.90
8248;DHT22;4164;49.844;8.830;2022-09-27T14:35:21;12.20;99.90
8248;DHT22;4164;49.844;8.830;2022-09-27T14:38:09;12.20;99.90
8248;DHT22;4164;49.844;8.830;2022-09-27T14:40:58;12.20;99.90
8248;DHT22;4164;49.844;8.830;2022-09-27T14:43:25;12.20;99.90
8248;DHT22;4164;49.844;8.830;2022-09-27T14:45:56;12.30;99.90
8248;DHT22;4164;49.844;8.830;2022-09-27T14:48:31;12.40;99.90
8248;DHT22;4164;49.844;8.830;2022-09-27T14:51:02;12.50;99.90
8248;DHT22;4164;49.844;8.830;2022-09-27T14:53:33;12.40;99.90
8248;DHT22;4164;49.844;8.830;2022-09-27T14:56:00;12.40;99.90
8248;DHT22;4164;49.844;8.830;2022-09-27T14:58:27;12.40;99.90
8248;DHT22;4164;49.844;8.830;2022-09-27T15:00:55;12.60;99.90
8248;DHT22;4164;49.844;8.830;2022-09-27T15:03:28;12.70;99.90
8248;DHT22;4164;49.844;8.830;2022-09-27T15:05:56;12.80;99.90
8248;DHT22;4164;49.844;8.830;2022-09-27T15:08:26;12.80;99.90
8248;DHT22;4164;49.844;8.830;2022-09-27T15:10:55;12.80;99.90
8248;DHT22;4164;49.844;8.830;2022-09-27T15:13:20;12.80;99.90
8248;DHT22;4164;49.844;8.830;2022-09-27T15:15:47;12.80;99.90
8248;DHT22;4164;49.844;8.830;2022-09-27T15:18:33;13.00;99.90
8248;DHT22;4164;49.844;8.830;2022-09-27T15:21:12;12.90;99.90
8248;DHT22;4164;49.844;8.830;2022-09-27T15:23:41;12.70;99.90
8248;DHT22;4164;49.844;8.830;2022-09-27T15:26:17;12.70;99.90
8248;DHT22;4164;49.844;8.830;2022-09-27T15:28:46;12.70;99.90
8248;DHT22;4164;49.844;8.830;2022-09-27T15:31:13;12.60;99.90
8248;DHT22;4164;49.844;8.830;2022-09-27T15:33:40;12.50;99.90
8248;DHT22;4164;49.844;8.830;2022-09-27T15:36:09;12.50;99.90
8248;DHT22;4164;49.844;8.830;2022-09-27T15:38:44;12.30;99.90
8248;DHT22;4164;49.844;8.830;2022-09-27T15:41:17;12.10;99.90
8248;DHT22;4164;49.844;8.830;2022-09-27T15:43:46;11.80;99.90
8248;DHT22;4164;49.844;8.830;2022-09-27T15:51:39;11.00;99.90
8248;DHT22;4164;49.844;8.830;2022-09-27T15:54:05;10.60;99.90
8248;DHT22;4164;49.844;8.830;2022-09-27T15:56:32;10.40;99.90
8248;DHT22;4164;49.844;8.830;2022-09-27T15:58:58;10.20;99.90
8248;DHT22;4164;49.844;8.830;2022-09-27T16:01:24;10.10;99.90
8248;DHT22;4164;49.844;8.830;2022-09-27T16:03:49;10.10;99.90
8248;DHT22;4164;49.844;8.830;2022-09-27T16:06:15;10.10;99.90
8248;DHT22;4164;49.844;8.830;2022-09-27T16:08:42;10.10;99.90
8248;DHT22;4164;49.844;8.830;2022-09-27T16:11:12;10.10;99.90
8248;DHT22;4164;49.844;8.830;2022-09-27T16:13:38;10.10;99.90
8248;DHT22;4164;49.844;8.830;2022-09-27T16:16:04;10.00;99.90
8248;DHT22;4164;49.844;8.830;2022-09-27T16:18:30;10.10;99.90
8248;DHT22;4164;49.844;8.830;2022-09-27T16:20:57;10.20;99.90
8248;DHT22;4164;49.844;8.830;2022-09-27T16:23:23;10.20;99.90
8248;DHT22;4164;49.844;8.830;2022-09-27T16:25:51;10.20;99.90
8248;DHT22;4164;49.844;8.830;2022-09-27T16:28:17;10.30;99.90
8248;DHT22;4164;49.844;8.830;2022-09-27T16:30:42;10.30;99.90
8248;DHT22;4164;49.844;8.830;2022-09-27T16:33:09;10.30;99.90
8248;DHT22;4164;49.844;8.830;2022-09-27T16:35:38;10.40;99.90
8248;DHT22;4164;49.844;8.830;2022-09-27T16:38:05;10.30;99.90
8248;DHT22;4164;49.844;8.830;2022-09-27T16:40:31;10.30;99.90
8248;DHT22;4164;49.844;8.830;2022-09-27T16:42:57;10.40;99.90
8248;DHT22;4164;49.844;8.830;2022-09-27T16:45:22;10.30;99.90
8248;DHT22;4164;49.844;8.830;2022-09-27T16:47:51;10.30;99.90
8248;DHT22;4164;49.844;8.830;2022-09-27T16:50:16;10.40;99.90
8248;DHT22;4164;49.844;8.830;2022-09-27T16:53:00;10.40;99.90
8248;DHT22;4164;49.844;8.830;2022-09-27T16:55:26;10.40;99.90
8248;DHT22;4164;49.844;8.830;2022-09-27T16:57:53;10.50;99.90
8248;DHT22;4164;49.844;8.830;2022-09-27T17:00:18;10.40;99.90
8248;DHT22;4164;49.844;8.830;2022-09-27T17:02:47;10.30;99.90
8248;DHT22;4164;49.844;8.830;2022-09-27T17:05:14;10.40;99.90
8248;DHT22;4164;49.844;8.830;2022-09-27T17:07:40;10.30;99.90
8248;DHT22;4164;49.844;8.830;2022-09-27T17:10:06;10.10;99.90
8248;DHT22;4164;49.844;8.830;2022-09-27T17:12:32;10.20;99.90
8248;DHT22;4164;49.844;8.830;2022-09-27T17:14:58;10.20;99.90
8248;DHT22;4164;49.844;8.830;2022-09-27T17:17:24;10.10;99.90
8248;DHT22;4164;49.844;8.830;2022-09-27T17:19:50;10.10;99.90
8248;DHT22;4164;49.844;8.830;2022-09-27T17:22:16;10.30;99.90
8248;DHT22;4164;49.844;8.830;2022-09-27T17:24:41;10.10;99.90
8248;DHT22;4164;49.844;8.830;2022-09-27T17:27:07;10.20;99.90
8248;DHT22;4164;49.844;8.830;2022-09-27T17:29:32;10.20;99.90
8248;DHT22;4164;49.844;8.830;2022-09-27T17:31:58;10.30;99.90
8248;DHT22;4164;49.844;8.830;2022-09-27T17:34:24;10.20;99.90
8248;DHT22;4164;49.844;8.830;2022-09-27T17:36:50;10.30;99.90
8248;DHT22;4164;49.844;8.830;2022-09-27T17:39:18;10.30;99.90
8248;DHT22;4164;49.844;8.830;2022-09-27T17:41:46;10.30;99.90
8248;DHT22;4164;49.844;8.830;2022-09-27T17:44:14;10.30;99.90
8248;DHT22;4164;49.844;8.830;2022-09-27T17:46:40;10.30;99.90
8248;DHT22;4164;49.844;8.830;2022-09-27T17:49:06;10.30;99.90
8248;DHT22;4164;49.844;8.830;2022-09-27T17:51:52;10.30;99.90
8248;DHT22;4164;49.844;8.830;2022-09-27T17:54:20;10.30;99.90
8248;DHT22;4164;49.844;8.830;2022-09-27T17:56:47;10.20;99.90
8248;DHT22;4164;49.844;8.830;2022-09-27T17:59:14;10.30;99.90
8248;DHT22;4164;49.844;8.830;2022-09-27T18:01:45;10.30;99.90
8248;DHT22;4164;49.844;8.830;2022-09-27T18:04:13;10.30;99.90
8248;DHT22;4164;49.844;8.830;2022-09-27T18:06:41;10.30;99.90
8248;DHT22;4164;49.844;8.830;2022-09-27T18:09:08;10.40;99.90
8248;DHT22;4164;49.844;8.830;2022-09-27T18:11:34;10.30;99.90
8248;DHT22;4164;49.844;8.830;2022-09-27T18:14:00;10.40;99.90
8248;DHT22;4164;49.844;8.830;2022-09-27T18:16:44;10.40;99.90
8248;DHT22;4164;49.844;8.830;2022-09-27T18:19:12;10.40;99.90
8248;DHT22;4164;49.844;8.830;2022-09-27T18:21:38;10.40;99.90
8248;DHT22;4164;49.844;8.830;2022-09-27T18:24:04;10.30;99.90
8248;DHT22;4164;49.844;8.830;2022-09-27T18:26:31;10.30;99.90
8248;DHT22;4164;49.844;8.830;2022-09-27T18:29:02;10.30;99.90
8248;DHT22;4164;49.844;8.830;2022-09-27T18:31:28;10.20;99.90
8248;DHT22;4164;49.844;8.830;2022-09-27T18:33:54;10.10;99.90
8248;DHT22;4164;49.844;8.830;2022-09-27T18:36:22;10.10;99.90
8248;DHT22;4164;49.844;8.830;2022-09-27T18:38:56;10.20;99.90
8248;DHT22;4164;49.844;8.830;2022-09-27T18:41:23;10.20;99.90
8248;DHT22;4164;49.844;8.830;2022-09-27T18:43:52;10.10;99.90